createdAt,value
2024-02-14T00:00:53.676Z,6.42
2024-02-14T00:03:20.419Z,6.47
2024-02-14T00:05:49.295Z,6.59
2024-02-14T00:08:15.855Z,6.60
2024-02-14T00:10:42.543Z,6.60
2024-02-14T00:13:09.114Z,6.65
2024-02-14T00:15:38.450Z,6.61
2024-02-14T00:18:05.164Z,6.70
2024-02-14T00:20:31.674Z,6.79
2024-02-14T00:22:58.186Z,6.88
2024-02-14T00:25:25.844Z,6.88
2024-02-14T00:27:52.367Z,6.87
2024-02-14T00:30:18.845Z,6.86
2024-02-14T00:32:45.539Z,6.88
2024-02-14T00:35:12.291Z,6.86
2024-02-14T00:37:38.928Z,6.74
2024-02-14T00:40:06.112Z,6.74
2024-02-14T00:42:32.566Z,6.79
2024-02-14T00:45:01.886Z,6.75
2024-02-14T00:47:28.461Z,6.95
2024-02-14T00:49:55.084Z,7.03
2024-02-14T00:52:21.454Z,6.90
2024-02-14T00:54:48.241Z,7.03
2024-02-14T00:57:14.734Z,7.08
2024-02-14T00:59:41.176Z,7.02
2024-02-14T01:02:07.639Z,6.93
2024-02-14T01:04:34.280Z,7.06
2024-02-14T01:07:08.168Z,7.02
2024-02-14T01:09:34.667Z,7.07
2024-02-14T01:12:01.171Z,7.04
2024-02-14T01:14:27.792Z,7.10
2024-02-14T01:16:54.384Z,7.02
2024-02-14T01:19:21.193Z,7.13
2024-02-14T01:21:47.823Z,7.11
2024-02-14T01:24:14.323Z,7.12
2024-02-14T01:26:41.024Z,7.17
2024-02-14T01:29:07.681Z,7.19
2024-02-14T01:31:34.713Z,7.21
2024-02-14T01:34:01.574Z,7.10
2024-02-14T01:36:29.373Z,7.16
2024-02-14T01:38:55.991Z,7.24
2024-02-14T01:41:22.599Z,7.24
2024-02-14T01:43:49.012Z,7.22
2024-02-14T01:46:16.293Z,7.26
2024-02-14T01:48:43.627Z,7.33
2024-02-14T01:51:12.399Z,7.27
2024-02-14T01:53:39.307Z,7.29
2024-02-14T01:56:06.484Z,7.30
2024-02-14T01:58:34.936Z,7.38
2024-02-14T02:01:01.934Z,7.36
2024-02-14T02:03:28.945Z,7.42
2024-02-14T02:05:56.616Z,7.41
2024-02-14T02:08:23.383Z,7.44
2024-02-14T02:10:52.883Z,7.50
2024-02-14T02:13:19.405Z,7.43
2024-02-14T02:15:46.018Z,7.49
2024-02-14T02:18:12.573Z,7.51
2024-02-14T02:20:39.414Z,7.52
2024-02-14T02:23:05.978Z,7.61
2024-02-14T02:25:32.423Z,7.57
2024-02-14T02:27:58.972Z,7.62
2024-02-14T02:30:25.691Z,7.51
2024-02-14T02:32:52.720Z,7.50
2024-02-14T02:35:22.333Z,7.68
2024-02-14T02:37:48.903Z,7.65
2024-02-14T02:40:15.618Z,7.74
2024-02-14T02:42:42.101Z,7.74
2024-02-14T02:45:08.969Z,7.78
2024-02-14T02:47:35.555Z,7.72
2024-02-14T02:50:02.096Z,7.74
2024-02-14T02:52:28.550Z,7.82
2024-02-14T02:54:57.842Z,7.88
2024-02-14T02:57:26.953Z,7.88
2024-02-14T02:59:56.783Z,7.85
2024-02-14T03:02:23.184Z,7.87
2024-02-14T03:04:52.913Z,7.90
2024-02-14T03:07:20.900Z,7.92
2024-02-14T03:09:47.459Z,7.97
2024-02-14T03:12:14.255Z,7.93
2024-02-14T03:14:40.721Z,7.88
2024-02-14T03:17:07.200Z,8.04
2024-02-14T03:19:33.769Z,8.05
2024-02-14T03:22:00.311Z,7.98
2024-02-14T03:24:26.751Z,8.09
2024-02-14T03:26:53.688Z,8.01
2024-02-14T03:29:23.340Z,7.97
2024-02-14T03:31:49.889Z,8.04
2024-02-14T03:34:16.454Z,8.13
2024-02-14T03:36:43.149Z,8.16
2024-02-14T03:39:12.551Z,8.08
2024-02-14T03:41:39.077Z,8.19
2024-02-14T03:44:05.555Z,8.17
2024-02-14T03:46:31.992Z,8.12
2024-02-14T03:48:58.625Z,8.22
2024-02-14T03:51:25.211Z,8.21
2024-02-14T03:53:52.046Z,8.15
2024-02-14T03:56:18.602Z,8.24
2024-02-14T03:58:45.085Z,8.26
2024-02-14T04:01:11.617Z,8.27
2024-02-14T04:03:38.019Z,8.27
2024-02-14T04:06:04.868Z,8.33
2024-02-14T04:08:32.061Z,8.35
2024-02-14T04:10:58.793Z,8.28
2024-02-14T04:13:25.292Z,8.39
2024-02-14T04:15:51.674Z,8.39
2024-02-14T04:18:18.362Z,8.42
2024-02-14T04:20:48.069Z,8.42
2024-02-14T04:23:14.526Z,8.39
2024-02-14T04:25:41.031Z,8.48
2024-02-14T04:28:07.732Z,8.44
2024-02-14T04:30:34.357Z,8.49
2024-02-14T04:33:00.947Z,8.51
2024-02-14T04:35:27.571Z,8.30
2024-02-14T04:37:54.166Z,8.44
2024-02-14T04:40:20.584Z,8.55
2024-02-14T04:42:47.949Z,8.50
2024-02-14T04:45:14.901Z,8.58
2024-02-14T04:47:44.423Z,8.60
2024-02-14T04:50:11.164Z,8.69
2024-02-14T04:52:37.972Z,8.60
2024-02-14T04:55:04.823Z,8.60
2024-02-14T04:57:31.304Z,8.74
2024-02-14T04:59:57.900Z,8.78
2024-02-14T05:02:24.320Z,8.75
2024-02-14T05:04:50.870Z,8.78
2024-02-14T05:07:17.423Z,8.80
2024-02-14T05:09:43.910Z,8.80
2024-02-14T05:12:10.421Z,8.90
2024-02-14T05:14:39.291Z,8.91
2024-02-14T05:17:05.736Z,8.84
2024-02-14T05:19:35.450Z,8.85
2024-02-14T05:22:05.195Z,8.94
2024-02-14T05:24:40.225Z,9.00
2024-02-14T05:27:06.856Z,9.03
2024-02-14T05:29:37.066Z,9.07
2024-02-14T05:32:04.042Z,9.03
2024-02-14T05:34:30.785Z,9.08
2024-02-14T05:36:57.316Z,9.04
2024-02-14T05:39:23.816Z,9.08
2024-02-14T05:41:50.388Z,9.01
2024-02-14T05:44:17.046Z,9.10
2024-02-14T05:46:43.610Z,9.21
2024-02-14T05:49:10.517Z,9.18
2024-02-14T05:51:37.163Z,9.20
2024-02-14T05:54:03.916Z,9.17
2024-02-14T05:56:30.508Z,9.15
2024-02-14T05:58:57.293Z,9.17
2024-02-14T06:01:23.883Z,9.22
2024-02-14T06:03:51.628Z,9.10
2024-02-14T06:06:18.370Z,9.23
2024-02-14T06:08:48.021Z,9.09
2024-02-14T06:11:14.572Z,9.08
2024-02-14T06:13:42.528Z,9.31
2024-02-14T06:16:16.608Z,9.32
2024-02-14T06:18:46.254Z,9.16
2024-02-14T06:21:13.397Z,9.19
2024-02-14T06:23:41.800Z,9.34
2024-02-14T06:26:08.514Z,9.33
2024-02-14T06:28:35.275Z,9.31
2024-02-14T06:31:02.996Z,9.15
2024-02-14T06:33:29.970Z,9.32
2024-02-14T06:35:59.377Z,9.38
2024-02-14T06:38:25.941Z,9.37
2024-02-14T06:40:55.605Z,9.19
2024-02-14T06:43:22.054Z,9.32
2024-02-14T06:45:49.569Z,9.18
2024-02-14T06:48:16.214Z,9.33
2024-02-14T06:50:42.796Z,9.33
2024-02-14T06:53:09.192Z,9.18
2024-02-14T06:55:35.794Z,9.37
2024-02-14T06:58:02.609Z,9.37
2024-02-14T07:00:29.079Z,9.24
2024-02-14T07:02:55.640Z,9.29
2024-02-14T07:05:22.115Z,9.35
2024-02-14T07:07:48.621Z,9.36
2024-02-14T07:10:15.133Z,9.37
2024-02-14T07:12:41.723Z,9.30
2024-02-14T07:15:11.226Z,9.20
2024-02-14T07:17:39.990Z,9.33
2024-02-14T07:20:13.145Z,9.24
2024-02-14T07:22:39.586Z,9.49
2024-02-14T07:25:06.242Z,9.40
2024-02-14T07:27:33.197Z,9.47
2024-02-14T07:29:59.881Z,9.44
2024-02-14T07:32:26.337Z,9.48
2024-02-14T07:34:52.839Z,9.55
2024-02-14T07:37:19.394Z,9.40
2024-02-14T07:39:48.812Z,9.49
2024-02-14T07:42:15.331Z,9.45
2024-02-14T07:44:42.041Z,9.40
2024-02-14T07:47:08.571Z,9.26
2024-02-14T07:49:35.239Z,9.23
2024-02-14T07:52:01.975Z,9.41
2024-02-14T07:54:28.571Z,9.34
2024-02-14T07:56:55.015Z,9.36
2024-02-14T07:59:21.512Z,9.22
2024-02-14T08:01:47.961Z,9.34
2024-02-14T08:04:14.416Z,9.35
2024-02-14T08:06:47.968Z,9.34
2024-02-14T08:09:14.497Z,9.41
2024-02-14T08:11:44.185Z,9.41
2024-02-14T08:14:10.696Z,9.32
2024-02-14T08:16:37.196Z,9.48
2024-02-14T08:19:04.220Z,9.52
2024-02-14T08:21:32.304Z,9.50
2024-02-14T08:23:59.517Z,9.49
2024-02-14T08:26:26.083Z,9.33
2024-02-14T08:28:52.559Z,9.44
2024-02-14T08:31:18.982Z,9.56
2024-02-14T08:33:45.656Z,9.56
2024-02-14T08:36:12.124Z,9.45
2024-02-14T08:38:38.585Z,9.48
2024-02-14T08:41:05.365Z,9.60
2024-02-14T08:43:32.164Z,9.67
2024-02-14T08:45:58.868Z,9.71
2024-02-14T08:48:25.410Z,9.71
2024-02-14T08:50:51.873Z,9.75
2024-02-14T08:53:21.297Z,9.81
2024-02-14T08:55:47.908Z,9.79
2024-02-14T08:58:14.450Z,9.72
2024-02-14T09:00:40.900Z,9.70
2024-02-14T09:03:07.602Z,9.57
2024-02-14T09:05:34.592Z,9.73
2024-02-14T09:08:01.402Z,9.72
2024-02-14T09:10:28.060Z,9.76
2024-02-14T09:12:54.521Z,9.70
2024-02-14T09:15:21.036Z,9.80
2024-02-14T09:17:47.499Z,9.77
2024-02-14T09:20:14.345Z,9.84
2024-02-14T09:22:41.273Z,9.81
2024-02-14T09:25:08.514Z,9.82
2024-02-14T09:27:35.069Z,9.96
2024-02-14T09:30:01.767Z,9.86
2024-02-14T09:32:28.451Z,9.91
2024-02-14T09:34:55.051Z,9.90
2024-02-14T09:37:21.711Z,9.89
2024-02-14T09:39:48.302Z,9.91
2024-02-14T09:42:24.389Z,9.92
2024-02-14T09:44:54.017Z,9.90
2024-02-14T09:47:21.051Z,9.96
2024-02-14T09:49:47.920Z,9.99
2024-02-14T09:52:22.286Z,9.96
2024-02-14T09:54:53.128Z,10.01
2024-02-14T09:57:20.582Z,9.99
2024-02-14T09:59:50.748Z,10.04
2024-02-14T10:02:17.234Z,10.02
2024-02-14T10:04:43.840Z,9.92
2024-02-14T10:07:10.521Z,10.04
2024-02-14T10:09:43.813Z,10.10
2024-02-14T10:12:10.892Z,10.07
2024-02-14T10:14:38.009Z,10.14
2024-02-14T10:17:08.500Z,10.20
2024-02-14T10:19:35.002Z,10.29
2024-02-14T10:22:02.265Z,10.34
2024-02-14T10:24:29.702Z,10.31
2024-02-14T10:26:56.292Z,10.27
2024-02-14T10:29:22.912Z,10.19
2024-02-14T10:31:49.568Z,10.30
2024-02-14T10:34:16.497Z,10.26
2024-02-14T10:36:46.569Z,10.23
2024-02-14T10:39:16.622Z,10.38
2024-02-14T10:41:46.302Z,10.38
2024-02-14T10:44:12.823Z,10.38
2024-02-14T10:46:41.014Z,10.33
2024-02-14T10:49:09.416Z,10.41
2024-02-14T10:51:36.904Z,10.38
2024-02-14T10:54:11.903Z,10.35
2024-02-14T10:56:43.649Z,10.42
2024-02-14T10:59:11.938Z,10.55
2024-02-14T11:01:42.800Z,10.51
2024-02-14T11:04:19.275Z,10.71
2024-02-14T11:06:47.627Z,10.71
2024-02-14T11:09:14.846Z,10.60
2024-02-14T11:11:41.432Z,10.60
2024-02-14T11:14:08.020Z,10.59
2024-02-14T11:16:34.580Z,10.43
2024-02-14T11:19:12.343Z,10.62
2024-02-14T11:21:51.009Z,10.58
2024-02-14T11:24:17.860Z,10.52
2024-02-14T11:26:54.918Z,10.55
2024-02-14T11:29:24.331Z,10.54
2024-02-14T11:31:59.940Z,10.53
2024-02-14T11:34:26.419Z,10.61
2024-02-14T11:36:53.120Z,10.65
2024-02-14T11:39:21.246Z,10.76
2024-02-14T11:41:47.831Z,10.70
2024-02-14T11:44:14.443Z,10.72
2024-02-14T11:46:41.350Z,10.73
2024-02-14T11:49:08.069Z,10.73
2024-02-14T11:51:35.768Z,10.76
2024-02-14T11:54:02.675Z,10.74
2024-02-14T11:56:29.226Z,10.65
2024-02-14T11:58:57.483Z,10.66
2024-02-14T12:01:23.998Z,10.66
2024-02-14T12:03:50.712Z,10.48
2024-02-14T12:06:17.445Z,10.54
2024-02-14T12:08:44.196Z,10.56
2024-02-14T12:11:12.727Z,10.66
2024-02-14T12:13:39.249Z,10.72
2024-02-14T12:16:20.462Z,10.60
2024-02-14T12:19:04.871Z,10.55
2024-02-14T12:21:34.734Z,10.65
2024-02-14T12:24:01.518Z,10.65
2024-02-14T12:26:32.159Z,10.52
2024-02-14T12:28:58.870Z,10.72
2024-02-14T12:31:25.846Z,10.78
2024-02-14T12:33:54.397Z,10.58
2024-02-14T12:36:21.340Z,10.73
2024-02-14T12:38:47.952Z,10.76
2024-02-14T12:41:17.414Z,10.53
2024-02-14T12:43:44.094Z,10.79
2024-02-14T12:46:13.728Z,10.72
2024-02-14T12:48:40.330Z,10.72
2024-02-14T12:51:06.984Z,10.75
2024-02-14T12:53:33.695Z,10.93
2024-02-14T12:56:03.144Z,10.87
2024-02-14T12:58:29.641Z,11.02
2024-02-14T13:00:59.186Z,11.08
2024-02-14T13:03:26.448Z,11.14
2024-02-14T13:05:53.517Z,10.99
2024-02-14T13:08:19.997Z,10.98
2024-02-14T13:10:46.700Z,11.03
2024-02-14T13:13:13.671Z,11.07
2024-02-14T13:15:40.212Z,11.20
2024-02-14T13:18:06.877Z,11.14
2024-02-14T13:20:33.534Z,11.19
2024-02-14T13:23:00.159Z,11.18
2024-02-14T13:25:26.651Z,11.09
2024-02-14T13:27:53.090Z,11.20
2024-02-14T13:30:19.683Z,11.07
2024-02-14T13:32:46.344Z,11.05
2024-02-14T13:35:12.897Z,11.11
2024-02-14T13:37:39.497Z,11.17
2024-02-14T13:40:09.668Z,11.19
2024-02-14T13:42:36.225Z,11.08
2024-02-14T13:45:02.952Z,11.05
2024-02-14T13:47:29.740Z,11.13
2024-02-14T13:49:56.311Z,11.14
2024-02-14T13:52:22.768Z,11.17
2024-02-14T13:54:49.269Z,11.02
2024-02-14T13:57:18.069Z,11.10
2024-02-14T13:59:45.853Z,11.20
2024-02-14T14:02:12.457Z,11.20
2024-02-14T14:04:39.015Z,11.15
2024-02-14T14:07:06.233Z,11.10
2024-02-14T14:09:33.136Z,11.13
2024-02-14T14:11:59.698Z,11.09
2024-02-14T14:14:26.181Z,11.13
2024-02-14T14:16:52.761Z,11.04
2024-02-14T14:19:19.496Z,11.02
2024-02-14T14:21:46.364Z,10.93
2024-02-14T14:24:12.916Z,11.00
2024-02-14T14:26:39.733Z,10.85
2024-02-14T14:29:06.400Z,10.98
2024-02-14T14:31:32.948Z,10.91
2024-02-14T14:33:59.636Z,11.03
2024-02-14T14:36:26.193Z,11.08
2024-02-14T14:38:52.916Z,11.04
2024-02-14T14:41:19.456Z,11.05
2024-02-14T14:43:45.908Z,11.01
2024-02-14T14:46:12.316Z,11.08
2024-02-14T14:48:38.949Z,10.92
2024-02-14T14:51:05.643Z,11.06
2024-02-14T14:53:32.299Z,10.88
2024-02-14T14:56:01.924Z,10.88
2024-02-14T14:58:30.644Z,10.96
2024-02-14T15:00:58.307Z,10.76
2024-02-14T15:03:25.274Z,11.02
2024-02-14T15:05:54.575Z,10.95
2024-02-14T15:08:22.183Z,10.89
2024-02-14T15:10:48.668Z,10.83
2024-02-14T15:13:15.098Z,10.94
2024-02-14T15:15:44.463Z,10.81
2024-02-14T15:18:11.167Z,10.89
2024-02-14T15:20:38.563Z,10.83
2024-02-14T15:23:05.429Z,10.93
2024-02-14T15:25:32.088Z,10.89
2024-02-14T15:27:58.568Z,10.75
2024-02-14T15:30:25.874Z,10.83
2024-02-14T15:32:52.579Z,10.83
2024-02-14T15:35:19.841Z,10.85
2024-02-14T15:37:46.875Z,10.79
2024-02-14T15:40:13.597Z,10.83
2024-02-14T15:42:43.238Z,10.80
2024-02-14T15:45:10.088Z,10.89
2024-02-14T15:47:36.739Z,10.86
2024-02-14T15:50:03.651Z,10.89
2024-02-14T15:52:32.895Z,10.75
2024-02-14T15:55:00.579Z,10.97
2024-02-14T15:57:30.085Z,10.72
2024-02-14T15:59:56.598Z,10.89
2024-02-14T16:02:23.350Z,10.76
2024-02-14T16:04:49.827Z,10.87
2024-02-14T16:07:16.383Z,11.00
2024-02-14T16:09:43.027Z,10.93
2024-02-14T16:12:11.818Z,10.91
2024-02-14T16:14:38.293Z,10.91
2024-02-14T16:17:06.463Z,10.85
2024-02-14T16:19:33.012Z,10.78
2024-02-14T16:22:09.752Z,10.73
2024-02-14T16:24:44.917Z,10.88
2024-02-14T16:27:11.517Z,10.86
2024-02-14T16:29:38.327Z,10.81
2024-02-14T16:32:08.985Z,10.72
2024-02-14T16:34:35.564Z,10.88
2024-02-14T16:37:02.259Z,11.00
2024-02-14T16:39:39.633Z,11.01
2024-02-14T16:42:08.849Z,11.03
2024-02-14T16:44:35.406Z,10.92
2024-02-14T16:47:18.766Z,10.91
2024-02-14T16:49:45.569Z,10.87
2024-02-14T16:52:12.098Z,10.80
2024-02-14T16:54:38.558Z,10.88
2024-02-14T16:57:05.641Z,10.90
2024-02-14T16:59:33.192Z,11.01
2024-02-14T17:01:59.733Z,10.96
2024-02-14T17:04:26.705Z,10.96
2024-02-14T17:06:58.835Z,11.07
2024-02-14T17:09:28.051Z,11.08
2024-02-14T17:11:55.066Z,11.02
2024-02-14T17:14:23.311Z,10.94
2024-02-14T17:16:50.303Z,10.97
2024-02-14T17:19:16.978Z,11.03
2024-02-14T17:21:43.686Z,10.99
2024-02-14T17:24:10.285Z,10.88
2024-02-14T17:26:36.811Z,10.95
2024-02-14T17:29:03.452Z,10.93
2024-02-14T17:31:29.930Z,10.89
2024-02-14T17:33:59.046Z,10.93
2024-02-14T17:36:25.625Z,10.97
2024-02-14T17:38:52.457Z,10.97
2024-02-14T17:41:21.506Z,11.00
2024-02-14T17:43:47.978Z,10.98
2024-02-14T17:46:14.472Z,10.99
2024-02-14T17:48:41.116Z,10.96
2024-02-14T17:51:07.614Z,10.81
2024-02-14T17:53:34.139Z,10.73
2024-02-14T17:56:00.657Z,10.85
2024-02-14T17:58:27.132Z,10.92
2024-02-14T18:00:53.596Z,10.86
2024-02-14T18:03:20.048Z,10.85
2024-02-14T18:05:46.619Z,10.78
2024-02-14T18:08:13.087Z,10.79
2024-02-14T18:10:39.548Z,10.71
2024-02-14T18:13:05.994Z,10.81
2024-02-14T18:15:32.551Z,10.83
2024-02-14T18:17:59.207Z,10.76
2024-02-14T18:20:25.783Z,10.67
2024-02-14T18:22:52.204Z,10.79
2024-02-14T18:25:18.645Z,10.60
2024-02-14T18:27:45.183Z,10.69
2024-02-14T18:30:12.010Z,10.71
2024-02-14T18:32:38.578Z,10.76
2024-02-14T18:35:05.531Z,10.74
2024-02-14T18:37:58.331Z,10.61
2024-02-14T18:40:24.942Z,10.75
2024-02-14T18:42:51.571Z,10.66
2024-02-14T18:45:17.996Z,10.83
2024-02-14T18:47:44.709Z,10.84
2024-02-14T18:50:11.349Z,10.80
2024-02-14T18:52:37.849Z,10.80
2024-02-14T18:55:04.743Z,10.79
2024-02-14T18:57:31.392Z,10.69
2024-02-14T18:59:59.666Z,10.81
2024-02-14T19:02:26.270Z,10.69
2024-02-14T19:04:52.721Z,10.67
2024-02-14T19:07:19.210Z,10.76
2024-02-14T19:09:45.696Z,10.82
2024-02-14T19:12:12.397Z,10.67
2024-02-14T19:14:39.006Z,10.69
2024-02-14T19:17:05.443Z,10.68
2024-02-14T19:19:32.180Z,10.59
2024-02-14T19:21:58.896Z,10.58
2024-02-14T19:24:28.446Z,10.68
2024-02-14T19:26:57.430Z,10.65
2024-02-14T19:29:23.936Z,10.58
2024-02-14T19:31:50.418Z,10.62
2024-02-14T19:34:17.214Z,10.58
2024-02-14T19:36:43.908Z,10.64
2024-02-14T19:39:10.346Z,10.66
2024-02-14T19:41:36.904Z,10.57
2024-02-14T19:44:03.509Z,10.64
2024-02-14T19:46:30.263Z,10.68
2024-02-14T19:48:57.013Z,10.69
2024-02-14T19:51:23.791Z,10.74
2024-02-14T19:53:50.370Z,10.66
2024-02-14T19:56:18.401Z,10.66
2024-02-14T19:58:44.831Z,10.77
2024-02-14T20:01:11.426Z,10.73
2024-02-14T20:03:37.978Z,10.76
2024-02-14T20:06:05.314Z,10.64
2024-02-14T20:08:37.535Z,10.79
2024-02-14T20:11:04.933Z,10.76
2024-02-14T20:13:34.428Z,10.76
2024-02-14T20:16:00.962Z,10.73
2024-02-14T20:18:30.943Z,10.75
2024-02-14T20:20:57.751Z,10.69
2024-02-14T20:23:27.592Z,10.78
2024-02-14T20:25:54.239Z,10.75
2024-02-14T20:28:20.866Z,10.70
2024-02-14T20:30:47.387Z,10.72
2024-02-14T20:33:14.093Z,10.81
2024-02-14T20:35:40.838Z,10.80
2024-02-14T20:38:07.390Z,10.78
2024-02-14T20:40:33.808Z,10.70
2024-02-14T20:43:00.300Z,10.82
2024-02-14T20:45:26.937Z,10.82
2024-02-14T20:47:53.554Z,10.79
2024-02-14T20:50:20.263Z,10.84
2024-02-14T20:52:46.741Z,10.72
2024-02-14T20:55:13.455Z,10.73
2024-02-14T20:57:39.946Z,10.83
2024-02-14T21:00:07.266Z,10.78
2024-02-14T21:02:33.894Z,10.96
2024-02-14T21:05:00.518Z,10.95
2024-02-14T21:07:26.975Z,10.92
2024-02-14T21:09:53.467Z,10.82
2024-02-14T21:12:20.092Z,10.98
2024-02-14T21:14:47.567Z,10.91
2024-02-14T21:17:14.156Z,10.90
2024-02-14T21:19:40.644Z,10.94
2024-02-14T21:22:07.550Z,10.95
2024-02-14T21:24:34.164Z,11.00
2024-02-14T21:27:00.672Z,10.91
2024-02-14T21:29:29.354Z,10.93
2024-02-14T21:31:55.864Z,10.95
2024-02-14T21:34:25.250Z,10.94
2024-02-14T21:36:51.920Z,11.01
2024-02-14T21:39:18.470Z,10.92
2024-02-14T21:41:45.102Z,10.99
2024-02-14T21:44:11.848Z,10.99
2024-02-14T21:46:38.284Z,10.97
2024-02-14T21:49:05.104Z,11.04
2024-02-14T21:51:31.770Z,10.87
2024-02-14T21:53:58.562Z,10.88
2024-02-14T21:56:25.080Z,10.87
2024-02-14T21:58:51.514Z,11.00
2024-02-14T22:01:18.060Z,11.02
2024-02-14T22:03:44.433Z,10.96
2024-02-14T22:06:11.130Z,10.99
2024-02-14T22:08:37.770Z,10.91
2024-02-14T22:11:04.469Z,10.89
2024-02-14T22:13:31.006Z,10.93
2024-02-14T22:15:57.534Z,10.89
2024-02-14T22:18:24.123Z,10.84
2024-02-14T22:20:50.780Z,10.82
2024-02-14T22:23:17.303Z,10.64
2024-02-14T22:25:50.972Z,10.73
2024-02-14T22:28:17.402Z,10.74
2024-02-14T22:30:44.255Z,10.73
2024-02-14T22:33:10.981Z,10.65
2024-02-14T22:35:37.537Z,10.50
2024-02-14T22:38:04.452Z,10.66
2024-02-14T22:40:30.879Z,10.58
2024-02-14T22:42:57.229Z,10.63
2024-02-14T22:45:23.863Z,10.65
2024-02-14T22:47:50.520Z,10.60
2024-02-14T22:50:17.088Z,10.61
2024-02-14T22:52:43.506Z,10.56
2024-02-14T22:55:09.878Z,10.64
2024-02-14T22:57:37.641Z,10.55
2024-02-14T23:00:04.789Z,10.59
2024-02-14T23:02:31.482Z,10.59
2024-02-14T23:05:05.343Z,10.56
2024-02-14T23:07:31.867Z,10.57
2024-02-14T23:09:58.318Z,10.49
2024-02-14T23:12:24.672Z,10.52
2024-02-14T23:14:53.284Z,10.43
2024-02-14T23:17:19.880Z,10.39
2024-02-14T23:19:46.455Z,10.44
2024-02-14T23:22:12.959Z,10.52
2024-02-14T23:24:39.362Z,10.35
2024-02-14T23:27:06.028Z,10.41
2024-02-14T23:29:32.638Z,10.37
2024-02-14T23:31:59.208Z,10.39
2024-02-14T23:34:25.888Z,10.38
2024-02-14T23:36:55.094Z,10.29
2024-02-14T23:39:21.593Z,10.41
2024-02-14T23:41:54.010Z,10.37
2024-02-14T23:44:20.613Z,10.38
2024-02-14T23:46:46.988Z,10.27
2024-02-14T23:49:13.641Z,10.47
2024-02-14T23:51:40.347Z,10.41
2024-02-14T23:54:09.805Z,10.36
2024-02-14T23:56:36.304Z,10.50
2024-02-14T23:59:02.860Z,10.53
